Time;durP1;ratioP1;P1;durP2;ratioP2;P2;SDS_P1;SDS_P2;PMS_P1;PMS_P2;Temp;Humidity;BMP_temperature;BMP_pressure;BME280_temperature;BME280_humidity;BME280_pressure;Samples;Min_cycle;Max_cycle;Signal;HPM_P1;HPM_P2
2023/02/09 00:01:29;;;;;;;102.47;65.55;;;;;;;-4.15;96.16;97083.66;5060416;28;20032;-68
2023/02/09 00:03:55;;;;;;;102.18;63.67;;;;;;;-4.22;96.58;97087.19;5067504;28;20028;-64
2023/02/09 00:06:23;;;;;;;82.10;55.47;;;;;;;-4.22;96.19;97087.19;5065203;28;20498;-63
2023/02/09 00:08:48;;;;;;;85.70;55.90;;;;;;;-4.22;96.43;97092.31;5054772;28;20048;-64
2023/02/09 00:11:18;;;;;;;76.70;51.95;;;;;;;-4.21;95.82;97089.72;5061672;28;20036;-64
2023/02/09 00:13:43;;;;;;;86.78;54.35;;;;;;;-4.27;96.02;97091.53;5067501;28;20051;-63
2023/02/09 00:16:09;;;;;;;74.55;48.60;;;;;;;-4.28;95.82;97085.53;5058873;28;20052;-64
2023/02/09 00:18:34;;;;;;;65.88;45.00;;;;;;;-4.22;94.50;97100.03;5060587;28;20037;-69
2023/02/09 00:21:10;;;;;;;68.28;44.47;;;;;;;-4.19;94.12;97097.44;5062085;28;20116;-77
2023/02/09 00:23:37;;;;;;;;;;;;;;;-4.23;94.63;97098.34;5062927;28;20136;-77
2023/02/09 00:26:07;;;;;;;62.22;43.75;;;;;;;-4.26;94.31;97100.94;5056863;28;19912;-78
2023/02/09 00:28:32;;;;;;;63.15;44.60;;;;;;;-4.27;94.38;97102.66;5054476;28;20037;-76
2023/02/09 00:30:58;;;;;;;60.22;43.08;;;;;;;-4.28;94.17;97100.13;5055712;28;20033;-77
2023/02/09 00:33:23;;;;;;;56.72;40.40;;;;;;;-4.32;94.28;97105.25;5064197;28;20046;-78
2023/02/09 00:35:49;;;;;;;59.88;40.90;;;;;;;-4.38;95.58;97107.06;5064228;28;20147;-77
2023/02/09 00:38:14;;;;;;;54.85;38.13;;;;;;;-4.39;95.97;97105.38;5062483;28;20072;-64
2023/02/09 00:40:40;;;;;;;55.97;38.63;;;;;;;-4.42;95.43;97110.53;5061638;28;20044;-69
2023/02/09 00:43:07;;;;;;;57.97;39.95;;;;;;;-4.43;95.20;97109.69;5053974;28;20048;-69
2023/02/09 00:45:32;;;;;;;54.47;38.22;;;;;;;-4.47;95.17;97119.13;5065342;28;20041;-69
2023/02/09 00:47:58;;;;;;;54.08;35.70;;;;;;;-4.47;94.84;97120.88;5063434;28;20098;-69
2023/02/09 00:50:23;;;;;;;52.15;35.88;;;;;;;-4.50;95.11;97113.19;5061406;28;20043;-69
2023/02/09 00:52:49;;;;;;;51.33;34.85;;;;;;;-4.54;96.27;97114.06;5054346;28;20626;-69
2023/02/09 00:55:15;;;;;;;54.33;38.10;;;;;;;-4.60;95.65;97115.00;5060040;28;20032;-69
2023/02/09 00:57:40;;;;;;;85.22;45.45;;;;;;;-4.62;96.13;97117.56;5064402;28;20086;-64
2023/02/09 01:00:07;;;;;;;110.90;54.58;;;;;;;-4.63;96.25;97108.16;5062088;28;20100;-63
2023/02/09 01:02:32;;;;;;;102.13;51.25;;;;;;;-4.63;96.53;97113.28;5065172;28;20033;-63
2023/02/09 01:04:58;;;;;;;90.32;46.60;;;;;;;-4.63;96.29;97110.72;5067395;28;20025;-63
2023/02/09 01:07:23;;;;;;;75.07;39.90;;;;;;;-4.67;95.28;97110.75;5064962;28;20044;-64
2023/02/09 01:09:48;;;;;;;62.45;36.28;;;;;;;-4.66;95.89;97105.63;5055360;28;20127;-64
2023/02/09 01:12:14;;;;;;;61.80;37.13;;;;;;;-4.65;95.27;97106.44;5057218;28;20037;-63
2023/02/09 01:14:39;;;;;;;59.85;36.97;;;;;;;-4.67;96.36;97106.47;5060632;28;20049;-63
2023/02/09 01:17:05;;;;;;;63.25;37.00;;;;;;;-4.72;95.83;97113.38;5056514;28;20036;-69
2023/02/09 01:19:31;;;;;;;56.50;34.95;;;;;;;-4.74;95.20;97112.56;5066034;28;20086;-69
2023/02/09 01:21:56;;;;;;;50.25;31.85;;;;;;;-4.73;95.33;97113.38;5061728;28;20136;-69
2023/02/09 01:24:21;;;;;;;55.53;34.85;;;;;;;-4.69;94.66;97117.63;5069710;28;20498;-69
2023/02/09 01:26:47;;;;;;;64.50;39.58;;;;;;;-4.68;94.72;97112.50;5069647;28;20658;-69
2023/02/09 01:29:18;;;;;;;46.55;31.67;;;;;;;-4.69;94.67;97109.91;5062610;28;20128;-69
2023/02/09 01:31:45;;;;;;;50.17;32.00;;;;;;;-4.70;95.32;97108.22;5056289;28;20041;-69
2023/02/09 01:34:13;;;;;;;51.00;30.45;;;;;;;-4.75;94.87;97105.72;5063583;28;20066;-69
2023/02/09 01:36:38;;;;;;;46.28;31.85;;;;;;;-4.78;96.27;97106.56;5063475;28;20043;-68
2023/02/09 01:39:04;;;;;;;43.65;29.90;;;;;;;-4.78;95.98;97106.56;5059076;28;20033;-63
2023/02/09 01:41:31;;;;;;;45.00;29.75;;;;;;;-4.77;96.78;97110.84;5059276;28;20067;-64
2023/02/09 01:44:04;;;;;;;37.78;28.20;;;;;;;-4.78;96.87;97116.84;5065479;28;20514;-64
2023/02/09 01:46:34;;;;;;;40.50;31.17;;;;;;;-4.81;96.35;97113.44;5056855;28;20115;-64
2023/02/09 01:49:05;;;;;;;47.88;33.03;;;;;;;-4.81;96.41;97114.31;5065864;28;20045;-63
2023/02/09 01:51:39;;;;;;;40.28;31.65;;;;;;;-4.83;96.84;97118.63;5066162;28;20043;-63
2023/02/09 01:54:15;;;;;;;36.40;27.25;;;;;;;-4.84;96.34;97119.50;5067980;28;20032;-68
2023/02/09 01:56:44;;;;;;;37.72;29.48;;;;;;;-4.84;96.65;97116.91;5064209;28;20052;-64
2023/02/09 01:59:12;;;;;;;42.90;31.10;;;;;;;-4.82;96.76;97116.88;5056390;28;20559;-64
2023/02/09 02:01:38;;;;;;;41.03;30.23;;;;;;;-4.90;97.79;97110.09;5060830;28;20076;-65
2023/02/09 02:04:04;;;;;;;37.58;28.05;;;;;;;-4.95;97.77;97111.00;5063375;28;20064;-63
2023/02/09 02:06:30;;;;;;;35.80;26.40;;;;;;;-4.96;97.30;97112.72;5059204;28;20087;-64
2023/02/09 02:09:01;;;;;;;33.17;25.38;;;;;;;-4.95;97.87;97114.44;5065743;28;20039;-63
2023/02/09 02:11:28;;;;;;;28.90;22.70;;;;;;;-4.96;97.07;97110.16;5064758;28;20502;-63
2023/02/09 02:13:56;;;;;;;94.63;61.00;;;;;;;-4.97;96.70;97120.44;5064351;28;20112;-70
2023/02/09 02:16:36;;;;;;;117.97;74.85;;;;;;;-5.00;97.06;97123.88;5058411;28;20056;-65
2023/02/09 02:19:36;;;;;;;91.68;61.08;;;;;;;-5.05;96.54;97129.06;5060228;28;20029;-63
2023/02/09 02:22:35;;;;;;;56.90;39.50;;;;;;;-5.05;97.33;97125.63;5036887;28;20518;-63
2023/02/09 02:25:12;;;;;;;60.70;39.42;;;;;;;-5.06;97.19;97123.91;5033091;28;20098;-63
2023/02/09 02:27:43;;;;;;;46.53;33.10;;;;;;;-5.08;96.41;97125.66;5065395;28;20044;-63
2023/02/09 02:30:27;;;;;;;54.08;37.03;;;;;;;-5.06;95.61;97121.34;5056642;28;20059;-63
2023/02/09 02:33:04;;;;;;;86.60;49.13;;;;;;;-5.03;95.61;97121.31;5055971;28;20099;-68
2023/02/09 02:35:47;;;;;;;57.83;39.42;;;;;;;-5.07;96.21;97112.81;5055649;28;20113;-62
2023/02/09 02:38:36;;;;;;;60.17;40.95;;;;;;;-5.12;96.00;97121.41;5055307;28;20108;-76
2023/02/09 02:41:24;;;;;;;46.75;32.90;;;;;;;-5.18;96.18;97112.03;5065565;28;20079;-76
2023/02/09 02:44:08;;;;;;;35.10;27.02;;;;;;;-5.19;96.26;97116.31;5067634;28;20044;-76
2023/02/09 02:46:50;;;;;;;43.25;30.30;;;;;;;-5.16;96.21;97106.88;5061034;28;20126;-76
2023/02/09 02:49:41;;;;;;;51.92;36.88;;;;;;;-5.19;96.45;97118.03;5061758;28;20510;-76
2023/02/09 02:52:09;;;;;;;55.30;36.30;;;;;;;-5.23;96.84;97112.03;5055877;28;20094;-76
2023/02/09 02:54:40;;;;;;;48.40;34.22;;;;;;;-5.22;97.14;97112.91;5065752;28;20477;-76
2023/02/09 02:57:13;;;;;;;48.13;34.40;;;;;;;-5.21;97.00;97106.91;5065933;28;20112;-61
2023/02/09 02:59:48;;;;;;;44.05;31.02;;;;;;;-5.18;95.95;97105.19;5066650;28;20098;-61
2023/02/09 03:02:19;;;;;;;42.83;29.60;;;;;;;-5.10;95.56;97106.84;5062773;28;20068;-62
2023/02/09 03:04:48;;;;;;;48.83;33.95;;;;;;;-5.08;95.19;97112.81;5057919;28;20040;-62
2023/02/09 03:07:16;;;;;;;44.88;32.63;;;;;;;-5.15;95.67;97103.47;5062865;28;20037;-62
2023/02/09 03:09:54;;;;;;;36.58;28.40;;;;;;;-5.20;97.68;97109.44;5040859;28;20086;-61
2023/02/09 03:12:35;;;;;;;35.17;25.65;;;;;;;-5.22;97.60;97103.47;5053323;28;20063;-65
2023/02/09 03:15:15;;;;;;;34.20;25.10;;;;;;;-5.21;98.26;97109.47;5058890;28;20043;-71
2023/02/09 03:17:51;;;;;;;31.00;23.92;;;;;;;-5.24;98.03;97110.34;5057924;28;20506;-70
2023/02/09 03:20:29;;;;;;;37.17;27.52;;;;;;;-5.22;98.61;97112.91;5053536;28;20110;-71
2023/02/09 03:23:01;;;;;;;37.65;28.23;;;;;;;-5.26;98.26;97108.66;5058222;28;20059;-71
2023/02/09 03:25:30;;;;;;;36.63;27.25;;;;;;;-5.32;97.76;97112.13;5061869;28;20049;-70
2023/02/09 03:28:03;;;;;;;32.15;26.92;;;;;;;-5.29;98.16;97112.09;5057055;28;20517;-70
2023/02/09 03:30:31;;;;;;;31.45;25.75;;;;;;;-5.29;97.69;97117.22;5060533;28;20051;-63
2023/02/09 03:32:57;;;;;;;30.08;22.92;;;;;;;-5.28;97.81;97105.25;5055877;28;20032;-65
2023/02/09 03:35:30;;;;;;;24.90;21.35;;;;;;;-5.29;97.22;97112.09;5065476;28;20093;-69
2023/02/09 03:37:55;;;;;;;30.58;24.15;;;;;;;-5.27;97.78;97105.22;5064985;28;20029;-69
2023/02/09 03:40:21;;;;;;;27.65;22.63;;;;;;;-5.29;97.04;97106.13;5058386;28;20043;-70
2023/02/09 03:42:47;;;;;;;29.55;22.48;;;;;;;-5.34;97.29;97108.72;5064902;28;20578;-70
2023/02/09 03:45:13;;;;;;;31.52;23.60;;;;;;;-5.34;97.02;97106.16;5056924;28;20394;-70
2023/02/09 03:47:39;;;;;;;33.70;23.88;;;;;;;-5.37;97.21;97107.00;5052405;28;20044;-69
2023/02/09 03:50:06;;;;;;;32.67;24.05;;;;;;;-5.37;96.86;97111.31;5064312;28;20037;-71
2023/02/09 03:52:31;;;;;;;38.47;27.92;;;;;;;-5.38;97.71;97104.47;5064323;28;20045;-71
2023/02/09 03:54:57;;;;;;;43.22;29.30;;;;;;;-5.35;96.58;97105.28;5064722;28;20124;-75
2023/02/09 03:57:22;;;;;;;48.65;31.58;;;;;;;-5.28;95.73;97106.09;5060080;28;20036;-75
2023/02/09 03:59:47;;;;;;;53.05;36.30;;;;;;;-5.28;96.03;97100.13;5066345;28;20037;-76
2023/02/09 04:02:13;;;;;;;45.95;32.97;;;;;;;-5.33;96.83;97103.56;5056121;28;20028;-75
2023/02/09 04:04:38;;;;;;;45.05;30.10;;;;;;;-5.40;96.39;97103.63;5058328;28;20044;-76
2023/02/09 04:07:04;;;;;;;45.45;31.02;;;;;;;-5.45;96.81;97101.06;5061926;28;20535;-75
2023/02/09 04:09:30;;;;;;;42.55;29.33;;;;;;;-5.44;96.87;97096.78;5057213;28;20048;-69
2023/02/09 04:11:55;;;;;;;37.42;26.13;;;;;;;-5.46;96.56;97109.63;5062961;28;20037;-64
2023/02/09 04:14:20;;;;;;;34.15;25.48;;;;;;;-5.47;97.17;97113.06;5059821;28;20051;-72
2023/02/09 04:16:46;;;;;;;33.53;26.30;;;;;;;-5.46;97.09;97099.38;5060715;28;20038;-71
2023/02/09 04:19:11;;;;;;;36.55;25.88;;;;;;;-5.47;97.24;97108.78;5066712;28;20052;-71
2023/02/09 04:21:38;;;;;;;34.83;24.75;;;;;;;-5.52;96.89;97105.38;5064231;28;20044;-71
2023/02/09 04:24:05;;;;;;;32.85;24.50;;;;;;;-5.56;97.46;97107.97;5041379;28;20099;-71
2023/02/09 04:26:30;;;;;;;28.63;20.48;;;;;;;-5.59;97.29;97106.28;5064498;28;20047;-71
2023/02/09 04:28:55;;;;;;;27.02;20.95;;;;;;;-5.56;97.77;97106.28;5059384;28;20028;-62
2023/02/09 04:31:21;;;;;;;24.48;20.15;;;;;;;-5.55;98.15;97099.41;5063783;28;20047;-76
2023/02/09 04:33:46;;;;;;;25.38;20.15;;;;;;;-5.58;98.17;97108.00;5059930;28;20036;-66
2023/02/09 04:36:12;;;;;;;26.52;20.48;;;;;;;-5.56;97.99;97113.09;5062553;28;21377;-66
2023/02/09 04:38:37;;;;;;;24.42;20.05;;;;;;;-5.56;98.04;97110.53;5061835;28;20032;-66
2023/02/09 04:41:03;;;;;;;23.20;20.30;;;;;;;-5.58;97.84;97115.69;5050302;28;20543;-66
2023/02/09 04:43:29;;;;;;;25.27;20.30;;;;;;;-5.62;97.70;97124.28;5066182;28;20024;-66
2023/02/09 04:45:54;;;;;;;25.40;20.20;;;;;;;-5.63;97.92;97120.84;5061360;28;20047;-66
2023/02/09 04:48:23;;;;;;;23.83;20.20;;;;;;;-5.64;97.78;97120.84;5061634;28;20037;-69
2023/02/09 04:50:49;;;;;;;26.60;19.40;;;;;;;-5.64;97.44;97131.09;5064683;28;20039;-62
2023/02/09 04:53:15;;;;;;;20.85;18.42;;;;;;;-5.66;97.69;97125.13;5056493;28;20075;-69
2023/02/09 04:55:42;;;;;;;24.02;19.70;;;;;;;-5.62;97.46;97129.41;5059191;28;20506;-69
2023/02/09 05:00:55;;;;;;;21.23;18.92;;;;;;;-5.70;96.96;97138.84;5061090;28;20035;-70
2023/02/09 05:03:21;;;;;;;23.27;20.90;;;;;;;-5.73;97.07;97138.84;5069634;28;20064;-68
2023/02/09 05:05:46;;;;;;;21.83;19.40;;;;;;;-5.75;98.00;97144.84;5062585;28;20198;-68
2023/02/09 05:08:11;;;;;;;24.48;21.38;;;;;;;-5.73;97.99;97138.84;5069841;28;20029;-64
2023/02/09 05:10:37;;;;;;;24.55;21.02;;;;;;;-5.72;97.65;97145.69;5065585;28;20043;-70
2023/02/09 05:13:02;;;;;;;21.50;19.27;;;;;;;-5.74;98.04;97143.16;5056192;28;20033;-70
2023/02/09 05:15:28;;;;;;;23.88;20.92;;;;;;;-5.73;98.82;97144.00;5065377;28;20044;-71
2023/02/09 05:17:53;;;;;;;25.45;21.58;;;;;;;-5.71;97.56;97145.69;5070714;28;20029;-71
2023/02/09 05:20:19;;;;;;;21.08;18.90;;;;;;;-5.71;97.26;97144.84;5055586;28;20352;-71
2023/02/09 05:22:44;;;;;;;22.98;20.45;;;;;;;-5.80;96.81;97146.59;5059668;28;20036;-73
2023/02/09 05:25:09;;;;;;;23.67;20.92;;;;;;;-5.80;97.13;97146.59;5066267;28;20392;-69
2023/02/09 05:27:35;;;;;;;24.23;21.67;;;;;;;-5.81;98.28;97150.03;5060690;28;20079;-71
2023/02/09 05:30:00;;;;;;;24.85;21.35;;;;;;;-5.83;96.92;97151.75;5053385;28;20037;-65
2023/02/09 05:32:25;;;;;;;28.50;23.25;;;;;;;-5.80;97.52;97148.28;5063395;28;20514;-66
2023/02/09 05:34:51;;;;;;;35.70;28.30;;;;;;;-5.79;97.15;97153.44;5063161;28;20071;-66
2023/02/09 05:37:16;;;;;;;32.47;27.85;;;;;;;-5.80;97.22;97163.69;5057962;28;20044;-66
2023/02/09 05:39:42;;;;;;;33.40;25.92;;;;;;;-5.84;97.10;97157.72;5063867;28;20024;-66
2023/02/09 05:42:16;;;;;;;33.20;26.83;;;;;;;-5.83;97.67;97156.88;5052996;28;20039;-66
2023/02/09 05:44:49;;;;;;;35.03;26.35;;;;;;;-5.81;97.80;97157.72;5067520;28;20031;-66
2023/02/09 05:47:19;;;;;;;32.10;27.42;;;;;;;-5.85;98.61;97156.03;5068303;28;20028;-71
2023/02/09 05:49:45;;;;;;;27.38;24.20;;;;;;;-5.85;98.93;97162.84;5067422;28;20029;-71
2023/02/09 05:52:11;;;;;;;32.58;26.90;;;;;;;-5.84;99.13;97162.84;5069792;28;20041;-70
2023/02/09 05:54:37;;;;;;;40.63;30.45;;;;;;;-5.84;99.37;97173.13;5067965;28;20503;-70
2023/02/09 05:57:03;;;;;;;33.28;27.63;;;;;;;-5.87;98.88;97179.97;5070014;28;20032;-70
2023/02/09 05:59:29;;;;;;;36.70;27.58;;;;;;;-5.89;98.96;97172.25;5068059;28;20029;-70
2023/02/09 06:01:55;;;;;;;33.45;27.02;;;;;;;-5.91;99.15;97181.69;5069902;28;20085;-70
2023/02/09 06:04:20;;;;;;;29.25;23.33;;;;;;;-5.94;98.74;97182.56;5069717;28;20033;-70
2023/02/09 06:06:46;;;;;;;29.55;20.30;;;;;;;-5.92;99.13;97177.41;5071075;28;20047;-70
2023/02/09 06:09:11;;;;;;;27.15;21.73;;;;;;;-5.90;98.98;97173.13;5070362;28;20094;-77
2023/02/09 06:11:36;;;;;;;23.50;20.33;;;;;;;-5.91;99.34;97179.09;5070386;28;20033;-76
2023/02/09 06:14:02;;;;;;;25.60;21.85;;;;;;;-5.93;98.82;97171.44;5070606;28;20425;-77
2023/02/09 06:16:27;;;;;;;26.88;23.00;;;;;;;-5.94;98.93;97169.72;5071579;28;20436;-77
2023/02/09 06:18:52;;;;;;;29.80;23.98;;;;;;;-5.98;99.20;97172.31;5071376;28;20082;-77
2023/02/09 06:21:18;;;;;;;29.83;23.73;;;;;;;-5.98;98.86;97173.13;5071376;28;20078;-76
2023/02/09 06:23:44;;;;;;;28.90;23.67;;;;;;;-6.00;98.71;97168.88;5057351;28;20406;-76
2023/02/09 06:26:11;;;;;;;29.88;23.00;;;;;;;-6.05;99.17;97172.34;5070841;28;20044;-70
2023/02/09 06:28:37;;;;;;;25.05;20.95;;;;;;;-6.06;99.04;97169.78;5071032;28;20037;-63
2023/02/09 06:31:04;;;;;;;28.48;23.27;;;;;;;-6.13;98.82;97176.63;5065612;28;20410;-63
2023/02/09 06:33:29;;;;;;;26.25;21.55;;;;;;;-6.11;99.20;97181.78;5059952;28;20040;-63
2023/02/09 06:35:55;;;;;;;24.67;21.20;;;;;;;-6.08;99.01;97167.25;5064817;28;20028;-63
2023/02/09 06:38:20;;;;;;;26.20;20.75;;;;;;;-6.11;98.52;97167.22;5051976;28;20033;-63
2023/02/09 06:40:46;;;;;;;27.50;20.67;;;;;;;-6.16;99.47;97171.50;5060358;28;20483;-63
2023/02/09 06:43:11;;;;;;;26.55;21.33;;;;;;;-6.19;99.08;97179.22;5067034;28;20560;-62
2023/02/09 06:45:38;;;;;;;28.05;21.35;;;;;;;-6.19;98.89;97172.41;5059109;28;20044;-66
2023/02/09 06:48:05;;;;;;;29.40;22.48;;;;;;;-6.08;98.75;97174.94;5052291;28;20164;-62
2023/02/09 06:50:32;;;;;;;25.48;20.95;;;;;;;-6.05;99.28;97179.19;5054523;28;20040;-62
2023/02/09 06:52:57;;;;;;;25.90;20.67;;;;;;;-6.08;98.87;97176.63;5052541;28;20033;-62
2023/02/09 06:55:23;;;;;;;21.63;19.40;;;;;;;-6.08;98.89;97181.75;5062444;28;20417;-62
2023/02/09 06:57:49;;;;;;;23.63;19.02;;;;;;;-6.05;99.27;97182.63;5051625;28;20036;-62
2023/02/09 07:00:15;;;;;;;22.73;20.25;;;;;;;-6.03;99.06;97180.03;5064414;28;20571;-61
2023/02/09 07:02:41;;;;;;;43.35;31.77;;;;;;;-5.94;98.63;97182.56;5056466;28;20049;-62
2023/02/09 07:05:07;;;;;;;53.28;36.65;;;;;;;-5.84;98.91;97188.50;5052009;28;20041;-63
2023/02/09 07:07:32;;;;;;;49.20;35.50;;;;;;;-5.85;99.33;97188.50;5050192;28;20136;-63
2023/02/09 07:09:58;;;;;;;45.47;32.30;;;;;;;-5.88;99.60;97189.34;5059891;28;20044;-62
2023/02/09 07:12:23;;;;;;;42.20;26.75;;;;;;;-5.88;98.75;97191.09;5056113;28;20033;-62
2023/02/09 07:14:48;;;;;;;36.88;26.58;;;;;;;-5.87;98.83;97193.63;5051032;28;20084;-62
2023/02/09 07:17:14;;;;;;;37.03;25.70;;;;;;;-5.91;99.35;97191.94;5064772;28;20044;-63
2023/02/09 07:19:39;;;;;;;32.22;25.27;;;;;;;-5.86;99.89;97195.34;5062530;28;20087;-62
2023/02/09 07:22:04;;;;;;;34.55;25.48;;;;;;;-5.83;99.54;97195.34;5068563;28;20131;-74
2023/02/09 07:24:30;;;;;;;33.25;25.65;;;;;;;-5.78;99.39;97197.88;5058960;28;20029;-69
2023/02/09 07:26:55;;;;;;;52.67;33.25;;;;;;;-5.74;99.73;97204.72;5062914;28;20029;-69
2023/02/09 07:29:20;;;;;;;48.03;33.85;;;;;;;-5.71;100.00;97206.41;5059875;28;20144;-67
2023/02/09 07:31:45;;;;;;;44.38;29.63;;;;;;;-5.73;99.41;97203.88;5065906;28;20056;-65
2023/02/09 07:34:11;;;;;;;48.58;29.80;;;;;;;-5.75;100.00;97198.72;5062332;28;20079;-70
2023/02/09 07:36:36;;;;;;;35.83;25.08;;;;;;;-5.76;99.97;97197.03;5056255;28;20041;-69
2023/02/09 07:39:02;;;;;;;34.53;27.27;;;;;;;-5.72;99.65;97199.56;5052305;28;20020;-67
2023/02/09 07:41:27;;;;;;;38.28;28.15;;;;;;;-5.69;99.35;97204.69;5050906;28;20447;-68
2023/02/09 07:43:54;;;;;;;38.88;28.60;;;;;;;-5.67;98.82;97208.97;5048635;28;20032;-77
2023/02/09 07:46:21;;;;;;;49.22;38.38;;;;;;;-5.63;98.76;97209.81;5049710;28;20564;-75
2023/02/09 07:48:48;;;;;;;53.00;40.35;;;;;;;-5.43;97.44;97208.88;5051120;28;20048;-77
2023/02/09 07:51:15;;;;;;;56.75;42.63;;;;;;;-5.48;98.38;97209.75;5051978;28;20032;-76
2023/02/09 07:53:41;;;;;;;62.28;43.40;;;;;;;-5.55;99.55;97205.50;5058876;28;20032;-74
2023/02/09 07:56:06;;;;;;;63.45;46.08;;;;;;;-5.50;99.23;97208.06;5065549;28;20052;-78
2023/02/09 07:58:32;;;;;;;71.78;52.90;;;;;;;-5.36;98.90;97208.84;5060156;28;20024;-79
2023/02/09 08:01:03;;;;;;;66.75;48.63;;;;;;;-5.15;97.82;97211.31;5041698;28;20042;-62
2023/02/09 08:03:30;;;;;;;74.65;51.15;;;;;;;-5.12;97.83;97203.59;5056522;28;20029;-64
2023/02/09 08:06:11;;;;;;;73.63;55.70;;;;;;;-5.06;97.64;97203.56;5054698;28;20035;-63
2023/02/09 08:08:36;;;;;;;75.03;51.88;;;;;;;-5.07;98.51;97210.41;5052236;28;20115;-63
2023/02/09 08:11:04;;;;;;;69.65;52.90;;;;;;;-5.08;99.64;97211.28;5064086;28;20473;-62
2023/02/09 08:13:36;;;;;;;75.70;55.63;;;;;;;-5.07;99.80;97201.84;5064454;28;20036;-62
2023/02/09 08:16:05;;;;;;;74.72;53.70;;;;;;;-5.06;99.43;97211.25;5053876;28;20071;-62
2023/02/09 08:18:41;;;;;;;71.60;51.80;;;;;;;-5.01;99.65;97212.06;5068124;28;20039;-62
2023/02/09 08:21:10;;;;;;;70.55;53.03;;;;;;;-5.00;98.67;97211.22;5051075;28;20025;-64
2023/02/09 08:23:39;;;;;;;70.90;53.20;;;;;;;-4.98;98.68;97217.19;5052222;28;20033;-67
2023/02/09 08:26:07;;;;;;;63.85;46.42;;;;;;;-4.97;98.88;97216.34;5061289;28;20064;-67
2023/02/09 08:28:33;;;;;;;56.95;43.88;;;;;;;-4.93;98.28;97212.91;5068120;28;20047;-66
2023/02/09 08:30:58;;;;;;;53.05;40.53;;;;;;;-4.89;98.51;97217.16;5059082;28;20442;-67
2023/02/09 08:33:24;;;;;;;52.65;42.20;;;;;;;-4.85;97.39;97220.56;5030975;28;20064;-67
2023/02/09 08:35:51;;;;;;;64.28;50.30;;;;;;;-4.78;96.69;97216.22;5049185;28;20045;-66
2023/02/09 08:38:18;;;;;;;78.80;60.65;;;;;;;-4.76;97.00;97217.91;5049196;28;20499;-66
2023/02/09 08:40:44;;;;;;;72.25;62.03;;;;;;;-4.69;96.92;97218.75;5056948;28;20044;-62
2023/02/09 08:43:11;;;;;;;67.18;53.85;;;;;;;-4.73;97.70;97219.63;5061167;28;20056;-70
2023/02/09 08:45:38;;;;;;;62.58;52.03;;;;;;;-4.72;97.75;97221.34;5057183;28;20033;-72
2023/02/09 08:48:05;;;;;;;62.17;48.05;;;;;;;-4.60;98.11;97226.38;5050013;28;20478;-71
2023/02/09 08:50:31;;;;;;;67.18;46.17;;;;;;;-4.08;97.34;97220.81;5054026;28;20037;-72
2023/02/09 08:52:57;;;;;;;64.32;50.08;;;;;;;-3.61;96.63;97229.75;5047966;28;20028;-71
2023/02/09 08:55:23;;;;;;;64.97;48.33;;;;;;;-3.15;96.28;97231.81;5050922;28;20029;-71
2023/02/09 08:57:48;;;;;;;62.35;47.13;;;;;;;-2.81;95.69;97226.16;5053069;28;20064;-81
2023/02/09 09:00:14;;;;;;;75.82;46.63;;;;;;;-2.46;95.97;97224.81;5049532;28;20041;-62
2023/02/09 09:02:39;;;;;;;89.65;57.70;;;;;;;-1.98;94.24;97223.16;5048812;28;20033;-67
2023/02/09 09:05:05;;;;;;;56.67;39.95;;;;;;;-1.54;92.04;97229.22;5053831;28;20060;-67
2023/02/09 09:07:30;;;;;;;63.72;43.33;;;;;;;-1.41;90.58;97223.81;5057438;28;20024;-66
2023/02/09 09:09:56;;;;;;;36.03;25.27;;;;;;;-1.23;88.09;97220.84;5051399;28;20095;-67
2023/02/09 09:12:21;;;;;;;26.85;21.63;;;;;;;-1.11;82.71;97230.06;5050063;28;20103;-66
2023/02/09 09:14:46;;;;;;;30.65;23.35;;;;;;;-0.93;81.38;97221.09;5050779;28;20522;-66
2023/02/09 09:17:12;;;;;;;21.70;17.77;;;;;;;-0.73;79.47;97209.47;5051477;28;20032;-67
2023/02/09 09:19:37;;;;;;;19.58;15.60;;;;;;;-0.42;81.52;97211.31;5053340;28;20478;-66
2023/02/09 09:22:03;;;;;;;18.63;14.85;;;;;;;-0.18;80.05;97211.59;5060570;28;20025;-68
2023/02/09 09:24:31;;;;;;;16.00;14.27;;;;;;;-0.01;73.07;97217.22;5050491;28;20025;-68
2023/02/09 09:26:57;;;;;;;13.70;12.27;;;;;;;0.17;73.44;97209.84;5054194;28;20056;-68
2023/02/09 09:29:23;;;;;;;14.52;10.70;;;;;;;0.41;71.48;97216.09;5055561;28;20033;-67
2023/02/09 09:31:49;;;;;;;10.00;8.95;;;;;;;0.59;68.85;97218.25;5050326;28;20488;-67
2023/02/09 09:34:14;;;;;;;10.38;9.38;;;;;;;0.89;66.28;97213.06;5050814;28;20506;-67
2023/02/09 09:36:40;;;;;;;11.73;10.52;;;;;;;1.22;64.18;97213.81;5049841;28;20033;-62
2023/02/09 09:39:05;;;;;;;14.02;12.05;;;;;;;1.32;57.71;97213.50;5048226;28;20412;-66
2023/02/09 09:41:35;;;;;;;13.13;10.73;;;;;;;1.54;59.94;97221.50;5056215;28;20091;-77
2023/02/09 09:44:02;;;;;;;11.05;10.02;;;;;;;1.63;55.38;97221.19;5052577;28;20039;-77
2023/02/09 09:46:40;;;;;;;13.30;10.65;;;;;;;1.78;56.65;97219.88;5051322;28;20037;-80
2023/02/09 09:49:17;;;;;;;11.77;10.57;;;;;;;1.85;55.43;97228.28;5046999;28;20025;-77
2023/02/09 09:51:46;;;;;;;11.70;10.50;;;;;;;1.98;53.82;97220.94;5050803;28;20491;-74
2023/02/09 09:54:16;;;;;;;11.68;10.48;;;;;;;2.06;54.61;97211.16;5053121;28;20108;-74
2023/02/09 09:56:41;;;;;;;13.98;10.48;;;;;;;2.13;53.92;97214.41;5051083;28;20441;-71
2023/02/09 09:59:16;;;;;;;11.13;10.02;;;;;;;2.48;54.70;97220.09;5047934;28;20029;-62
2023/02/09 10:01:42;;;;;;;11.73;10.52;;;;;;;2.53;52.98;97220.78;5049321;28;20120;-66
2023/02/09 10:04:13;;;;;;;10.70;9.13;;;;;;;2.71;55.48;97213.22;5051877;28;20040;-66
2023/02/09 10:06:41;;;;;;;12.45;10.73;;;;;;;2.77;56.85;97219.97;5047648;28;20561;-65
2023/02/09 10:09:14;;;;;;;23.33;18.23;;;;;;;2.81;56.31;97217.22;5047450;28;20092;-66
2023/02/09 10:12:17;;;;;;;11.00;9.90;;;;;;;2.60;56.85;97220.59;5050547;28;20041;-66
2023/02/09 10:14:43;;;;;;;16.73;11.25;;;;;;;2.65;57.25;97221.25;5047102;28;20057;-67
2023/02/09 10:17:08;;;;;;;11.15;8.82;;;;;;;2.78;56.40;97225.13;5048738;28;20705;-62
2023/02/09 10:19:34;;;;;;;10.65;9.18;;;;;;;2.82;53.59;97224.09;5047863;28;20032;-66
2023/02/09 10:21:59;;;;;;;12.95;11.63;;;;;;;2.62;53.48;97224.81;5046451;28;20028;-66
2023/02/09 10:24:32;;;;;;;15.23;12.43;;;;;;;2.67;52.45;97230.72;5050521;28;20423;-66
2023/02/09 10:27:01;;;;;;;13.88;8.27;;;;;;;2.94;54.44;97227.16;5050505;28;20083;-65
2023/02/09 10:29:26;;;;;;;8.95;8.02;;;;;;;3.08;52.59;97227.50;5049838;28;20029;-67
2023/02/09 10:32:09;;;;;;;10.82;8.00;;;;;;;3.23;51.52;97223.44;5050301;28;20040;-68
2023/02/09 10:34:39;;;;;;;10.07;8.15;;;;;;;3.53;51.87;97219.72;5049819;28;20103;-62
2023/02/09 10:37:14;;;;;;;9.38;8.50;;;;;;;3.87;50.25;97224.41;5050511;28;20028;-67
2023/02/09 10:39:39;;;;;;;10.70;9.73;;;;;;;3.99;48.71;97219.63;5048470;28;20480;-68
2023/02/09 10:42:16;;;;;;;12.05;9.13;;;;;;;4.26;45.69;97220.19;5049979;28;20052;-67
2023/02/09 10:44:46;;;;;;;12.27;10.80;;;;;;;4.43;46.28;97221.25;5049779;28;20037;-67
2023/02/09 10:47:17;;;;;;;9.57;8.68;;;;;;;4.65;46.48;97209.88;5046185;28;20033;-67
2023/02/09 10:49:43;;;;;;;11.90;10.65;;;;;;;4.64;44.59;97203.81;5046827;28;20041;-67
2023/02/09 10:52:11;;;;;;;9.90;8.98;;;;;;;4.70;43.04;97203.53;5047179;28;20529;-67
2023/02/09 10:54:40;;;;;;;10.65;9.55;;;;;;;4.90;42.57;97203.56;5048407;28;20086;-77
2023/02/09 10:57:21;;;;;;;10.30;9.30;;;;;;;5.07;40.54;97198.41;5047904;28;20024;-69
2023/02/09 10:59:52;;;;;;;11.27;10.23;;;;;;;5.17;40.44;97196.22;5048184;28;20017;-69
2023/02/09 11:02:51;;;;;;;12.93;11.60;;;;;;;5.25;40.86;97198.50;5050709;28;20071;-70
2023/02/09 11:05:19;;;;;;;10.50;9.38;;;;;;;5.38;38.93;97190.91;5037031;28;20052;-69
2023/02/09 11:07:55;;;;;;;10.98;9.88;;;;;;;5.29;39.02;97194.81;5050678;28;20602;-70
2023/02/09 11:10:21;;;;;;;;;;;;;;;5.39;40.42;97187.38;5048864;28;20053;-70
2023/02/09 11:12:46;;;;;;;;;;;;;;;5.53;39.76;97184.09;5046267;28;19919;-66
2023/02/09 11:15:13;;;;;;;11.23;10.03;;;;;;;5.72;39.81;97184.91;5048300;28;19920;-62
2023/02/09 11:17:44;;;;;;;12.68;9.02;;;;;;;5.90;39.12;97187.53;5051189;28;20033;-64
2023/02/09 11:20:32;;;;;;;13.05;9.45;;;;;;;6.13;38.52;97180.34;5051877;28;20033;-66
2023/02/09 11:23:21;;;;;;;10.68;9.68;;;;;;;6.04;37.96;97180.78;5050446;28;20028;-65
2023/02/09 11:25:55;;;;;;;10.77;9.75;;;;;;;6.13;39.27;97175.13;5058662;28;20135;-66
2023/02/09 11:28:30;;;;;;;10.10;9.20;;;;;;;6.15;36.80;97181.13;5055943;28;20033;-67